Aviation Digital Data Service (ADDS)

Output produced by METARs form (2335 UTC 15 February 2019)
found at http://www.aviationweather.gov/metar/data/
 
METAR text: EHVK 152325Z AUTO 17004KT 9999 NCD 06/02 Q1026 BLU 15005KT CAVOK
Conditions at: EHVK (VOLKEL RNLAFB , NL) observed 2325 UTC 15 February 2019
Temperature: 6.0°C (43°F)
Dewpoint: 2.0°C (36°F) [RH = 75%]
Pressure (altimeter): 30.30 inches Hg (1026.0 mb)
Winds: from the S (170 degrees) at 5 MPH (4 knots; 2.1 m/s)
Visibility: 6 or more miles (10+ km)
Ceiling: at least 12,000 feet AGL
Clouds: sky clear below 12,000 feet AGL
Weather: no significant weather observed at this time

METAR text: EHVK 152255Z AUTO 16005KT 9999 NCD 06/02 Q1026 BLU 15005KT CAVOK
Conditions at: EHVK (VOLKEL RNLAFB , NL) observed 2255 UTC 15 February 2019
Temperature: 6.0°C (43°F)
Dewpoint: 2.0°C (36°F) [RH = 75%]
Pressure (altimeter): 30.30 inches Hg (1026.0 mb)
Winds: from the SSE (160 degrees) at 6 MPH (5 knots; 2.6 m/s)
Visibility: 6 or more miles (10+ km)
Ceiling: at least 12,000 feet AGL
Clouds: sky clear below 12,000 feet AGL
Weather: no significant weather observed at this time

METAR text: EHVK 152225Z AUTO 16004KT 9999 NCD 07/02 Q1026 BLU 15005KT CAVOK
Conditions at: EHVK (VOLKEL RNLAFB , NL) observed 2225 UTC 15 February 2019
Temperature: 7.0°C (45°F)
Dewpoint: 2.0°C (36°F) [RH = 70%]
Pressure (altimeter): 30.30 inches Hg (1026.0 mb)
Winds: from the SSE (160 degrees) at 5 MPH (4 knots; 2.1 m/s)
Visibility: 6 or more miles (10+ km)
Ceiling: at least 12,000 feet AGL
Clouds: sky clear below 12,000 feet AGL
Weather: no significant weather observed at this time

METAR text: EHVK 152155Z AUTO 15003KT 9999 NCD 06/02 Q1026 BLU 15005KT CAVOK
Conditions at: EHVK (VOLKEL RNLAFB , NL) observed 2155 UTC 15 February 2019
Temperature: 6.0°C (43°F)
Dewpoint: 2.0°C (36°F) [RH = 75%]
Pressure (altimeter): 30.30 inches Hg (1026.0 mb)
Winds: from the SSE (150 degrees) at 3 MPH (3 knots; 1.5 m/s)
Visibility: 6 or more miles (10+ km)
Ceiling: at least 12,000 feet AGL
Clouds: sky clear below 12,000 feet AGL
Weather: no significant weather observed at this time

METAR text: EHVK 152125Z AUTO 15002KT 9999 NCD 05/02 Q1026 BLU 15005KT CAVOK
Conditions at: EHVK (VOLKEL RNLAFB , NL) observed 2125 UTC 15 February 2019
Temperature: 5.0°C (41°F)
Dewpoint: 2.0°C (36°F) [RH = 81%]
Pressure (altimeter): 30.30 inches Hg (1026.0 mb)
Winds: from the SSE (150 degrees) at 2 MPH (2 knots; 1.0 m/s)
Visibility: 6 or more miles (10+ km)
Ceiling: at least 12,000 feet AGL
Clouds: sky clear below 12,000 feet AGL
Weather: no significant weather observed at this time

METAR text: EHVK 152055Z AUTO 13003KT 9999 NCD 04/03 Q1026 BLU 15005KT CAVOK
Conditions at: EHVK (VOLKEL RNLAFB , NL) observed 2055 UTC 15 February 2019
Temperature: 4.0°C (39°F)
Dewpoint: 3.0°C (37°F) [RH = 93%]
Pressure (altimeter): 30.30 inches Hg (1026.0 mb)
Winds: from the SE (130 degrees) at 3 MPH (3 knots; 1.5 m/s)
Visibility: 6 or more miles (10+ km)
Ceiling: at least 12,000 feet AGL
Clouds: sky clear below 12,000 feet AGL
Weather: no significant weather observed at this time

METAR text: EHVK 152025Z AUTO 12002KT 9999 NCD 04/03 Q1026 BLU 15005KT CAVOK
Conditions at: EHVK (VOLKEL RNLAFB , NL) observed 2025 UTC 15 February 2019
Temperature: 4.0°C (39°F)
Dewpoint: 3.0°C (37°F) [RH = 93%]
Pressure (altimeter): 30.30 inches Hg (1026.0 mb)
Winds: from the ESE (120 degrees) at 2 MPH (2 knots; 1.0 m/s)
Visibility: 6 or more miles (10+ km)
Ceiling: at least 12,000 feet AGL
Clouds: sky clear below 12,000 feet AGL
Weather: no significant weather observed at this time

METAR text: EHVK 151955Z AUTO 11003KT 9999 NCD 04/03 Q1027 BLU 15005KT CAVOK
Conditions at: EHVK (VOLKEL RNLAFB , NL) observed 1955 UTC 15 February 2019
Temperature: 4.0°C (39°F)
Dewpoint: 3.0°C (37°F) [RH = 93%]
Pressure (altimeter): 30.32 inches Hg (1027.0 mb)
Winds: from the ESE (110 degrees) at 3 MPH (3 knots; 1.5 m/s)
Visibility: 6 or more miles (10+ km)
Ceiling: at least 12,000 feet AGL
Clouds: sky clear below 12,000 feet AGL
Weather: no significant weather observed at this time

METAR text: EHVK 151925Z AUTO 11001KT 9999 NCD 04/03 Q1027 BLU 15005KT CAVOK
Conditions at: EHVK (VOLKEL RNLAFB , NL) observed 1925 UTC 15 February 2019
Temperature: 4.0°C (39°F)
Dewpoint: 3.0°C (37°F) [RH = 93%]
Pressure (altimeter): 30.32 inches Hg (1027.0 mb)
Winds: from the ESE (110 degrees) at 1 MPH (1 knots; 0.5 m/s)
Visibility: 6 or more miles (10+ km)
Ceiling: at least 12,000 feet AGL
Clouds: sky clear below 12,000 feet AGL
Weather: no significant weather observed at this time

METAR text: EHVK 151855Z AUTO VRB02KT 9999 NCD 05/04 Q1027 BLU 15005KT CAVOK
Conditions at: EHVK (VOLKEL RNLAFB , NL) observed 1855 UTC 15 February 2019
Temperature: 5.0°C (41°F)
Dewpoint: 4.0°C (39°F) [RH = 93%]
Pressure (altimeter): 30.32 inches Hg (1027.0 mb)
Winds: variable direction winds at 2 MPH (2 knots; 1.0 m/s)
Visibility: 6 or more miles (10+ km)
Ceiling: at least 12,000 feet AGL
Clouds: sky clear below 12,000 feet AGL
Weather: no significant weather observed at this time

METAR text: EHVK 151825Z AUTO 08002KT 9999 NCD 06/04 Q1027 BLU 15005KT CAVOK
Conditions at: EHVK (VOLKEL RNLAFB , NL) observed 1825 UTC 15 February 2019
Temperature: 6.0°C (43°F)
Dewpoint: 4.0°C (39°F) [RH = 87%]
Pressure (altimeter): 30.32 inches Hg (1027.0 mb)
Winds: from the E (80 degrees) at 2 MPH (2 knots; 1.0 m/s)
Visibility: 6 or more miles (10+ km)
Ceiling: at least 12,000 feet AGL
Clouds: sky clear below 12,000 feet AGL
Weather: no significant weather observed at this time

METAR text: EHVK 151755Z AUTO 10003KT 9999 NCD 07/04 Q1027 BLU 15005KT CAVOK
Conditions at: EHVK (VOLKEL RNLAFB , NL) observed 1755 UTC 15 February 2019
Temperature: 7.0°C (45°F)
Dewpoint: 4.0°C (39°F) [RH = 81%]
Pressure (altimeter): 30.32 inches Hg (1027.0 mb)
Winds: from the E (100 degrees) at 3 MPH (3 knots; 1.5 m/s)
Visibility: 6 or more miles (10+ km)
Ceiling: at least 12,000 feet AGL
Clouds: sky clear below 12,000 feet AGL
Weather: no significant weather observed at this time

METAR text: EHVK 151725Z AUTO 11003KT 9999 NCD 09/05 Q1027 BLU 15005KT CAVOK
Conditions at: EHVK (VOLKEL RNLAFB , NL) observed 1725 UTC 15 February 2019
Temperature: 9.0°C (48°F)
Dewpoint: 5.0°C (41°F) [RH = 76%]
Pressure (altimeter): 30.32 inches Hg (1027.0 mb)
Winds: from the ESE (110 degrees) at 3 MPH (3 knots; 1.5 m/s)
Visibility: 6 or more miles (10+ km)
Ceiling: at least 12,000 feet AGL
Clouds: sky clear below 12,000 feet AGL
Weather: no significant weather observed at this time

METAR text: EHVK 151655Z AUTO 11003KT 9999 NCD 10/04 Q1028 BLU 15005KT CAVOK
Conditions at: EHVK (VOLKEL RNLAFB , NL) observed 1655 UTC 15 February 2019
Temperature: 10.0°C (50°F)
Dewpoint: 4.0°C (39°F) [RH = 66%]
Pressure (altimeter): 30.35 inches Hg (1028.0 mb)
Winds: from the ESE (110 degrees) at 3 MPH (3 knots; 1.5 m/s)
Visibility: 6 or more miles (10+ km)
Ceiling: at least 12,000 feet AGL
Clouds: sky clear below 12,000 feet AGL
Weather: no significant weather observed at this time

METAR text: EHVK 151625Z AUTO 11004KT 9999 NCD 13/04 Q1028 BLU 15005KT CAVOK
Conditions at: EHVK (VOLKEL RNLAFB , NL) observed 1625 UTC 15 February 2019
Temperature: 13.0°C (55°F)
Dewpoint: 4.0°C (39°F) [RH = 54%]
Pressure (altimeter): 30.35 inches Hg (1028.0 mb)
Winds: from the ESE (110 degrees) at 5 MPH (4 knots; 2.1 m/s)
Visibility: 6 or more miles (10+ km)
Ceiling: at least 12,000 feet AGL
Clouds: sky clear below 12,000 feet AGL
Weather: no significant weather observed at this time

METAR text: EHVK 151555Z AUTO 12005KT 9999 NCD 14/04 Q1028 BLU 15005KT CAVOK
Conditions at: EHVK (VOLKEL RNLAFB , NL) observed 1555 UTC 15 February 2019
Temperature: 14.0°C (57°F)
Dewpoint: 4.0°C (39°F) [RH = 51%]
Pressure (altimeter): 30.35 inches Hg (1028.0 mb)
Winds: from the ESE (120 degrees) at 6 MPH (5 knots; 2.6 m/s)
Visibility: 6 or more miles (10+ km)
Ceiling: at least 12,000 feet AGL
Clouds: sky clear below 12,000 feet AGL
Weather: no significant weather observed at this time

METAR text: EHVK 151525Z AUTO 12005KT 100V160 9999 NCD 15/04 Q1028 BLU 15005KT CAVOK
Conditions at: EHVK (VOLKEL RNLAFB , NL) observed 1525 UTC 15 February 2019
Temperature: 15.0°C (59°F)
Dewpoint: 4.0°C (39°F) [RH = 48%]
Pressure (altimeter): 30.35 inches Hg (1028.0 mb)
Winds: from the ESE (120 degrees) at 6 MPH (5 knots; 2.6 m/s)
Visibility: 6 or more miles (10+ km)
Ceiling: at least 12,000 feet AGL
Clouds: sky clear below 12,000 feet AGL
Weather: no significant weather observed at this time

METAR text: EHVK 151455Z AUTO 12005KT 9999 NCD 15/03 Q1028 BLU 15005KT CAVOK
Conditions at: EHVK (VOLKEL RNLAFB , NL) observed 1455 UTC 15 February 2019
Temperature: 15.0°C (59°F)
Dewpoint: 3.0°C (37°F) [RH = 44%]
Pressure (altimeter): 30.35 inches Hg (1028.0 mb)
Winds: from the ESE (120 degrees) at 6 MPH (5 knots; 2.6 m/s)
Visibility: 6 or more miles (10+ km)
Ceiling: at least 12,000 feet AGL
Clouds: sky clear below 12,000 feet AGL
Weather: no significant weather observed at this time

METAR text: EHVK 151445Z AUTO 14005KT 9999 NCD 15/02 Q1028 BLU 15005KT CAVOK
Conditions at: EHVK (VOLKEL RNLAFB , NL) observed 1445 UTC 15 February 2019
Temperature: 15.0°C (59°F)
Dewpoint: 2.0°C (36°F) [RH = 41%]
Pressure (altimeter): 30.35 inches Hg (1028.0 mb)
Winds: from the SE (140 degrees) at 6 MPH (5 knots; 2.6 m/s)
Visibility: 6 or more miles (10+ km)
Ceiling: at least 12,000 feet AGL
Clouds: sky clear below 12,000 feet AGL
Weather: no significant weather observed at this time

METAR text: EHVK 151441Z AUTO 14005KT 9999 NCD 15/02 Q1028 BLU 15005KT CAVOK
Conditions at: EHVK (VOLKEL RNLAFB , NL) observed 1441 UTC 15 February 2019
Temperature: 15.0°C (59°F)
Dewpoint: 2.0°C (36°F) [RH = 41%]
Pressure (altimeter): 30.35 inches Hg (1028.0 mb)
Winds: from the SE (140 degrees) at 6 MPH (5 knots; 2.6 m/s)
Visibility: 6 or more miles (10+ km)
Ceiling: at least 12,000 feet AGL
Clouds: sky clear below 12,000 feet AGL
Weather: no significant weather observed at this time

METAR text: EHVK 151425Z AUTO 13005KT 110V190 9999 NCD 15/03 Q1029 BLU 15005KT CAVOK
Conditions at: EHVK (VOLKEL RNLAFB , NL) observed 1425 UTC 15 February 2019
Temperature: 15.0°C (59°F)
Dewpoint: 3.0°C (37°F) [RH = 44%]
Pressure (altimeter): 30.38 inches Hg (1029.0 mb)
Winds: from the SE (130 degrees) at 6 MPH (5 knots; 2.6 m/s)
Visibility: 6 or more miles (10+ km)
Ceiling: at least 12,000 feet AGL
Clouds: sky clear below 12,000 feet AGL
Weather: no significant weather observed at this time

METAR text: EHVK 151355Z AUTO 15006KT 130V200 9999 NCD 15/02 Q1029 BLU 15005KT CAVOK
Conditions at: EHVK (VOLKEL RNLAFB , NL) observed 1355 UTC 15 February 2019
Temperature: 15.0°C (59°F)
Dewpoint: 2.0°C (36°F) [RH = 41%]
Pressure (altimeter): 30.38 inches Hg (1029.0 mb)
Winds: from the SSE (150 degrees) at 7 MPH (6 knots; 3.1 m/s)
Visibility: 6 or more miles (10+ km)
Ceiling: at least 12,000 feet AGL
Clouds: sky clear below 12,000 feet AGL
Weather: no significant weather observed at this time

METAR text: EHVK 151340Z AUTO 15004KT 120V180 9999 NCD 15/02 Q1029 BLU 15005KT CAVOK
Conditions at: EHVK (VOLKEL RNLAFB , NL) observed 1340 UTC 15 February 2019
Temperature: 15.0°C (59°F)
Dewpoint: 2.0°C (36°F) [RH = 41%]
Pressure (altimeter): 30.38 inches Hg (1029.0 mb)
Winds: from the SSE (150 degrees) at 5 MPH (4 knots; 2.1 m/s)
Visibility: 6 or more miles (10+ km)
Ceiling: at least 12,000 feet AGL
Clouds: sky clear below 12,000 feet AGL
Weather: no significant weather observed at this time

METAR text: EHVK 151325Z AUTO 14005KT 110V180 9999 NCD 15/02 Q1030 BLU 15005KT CAVOK
Conditions at: EHVK (VOLKEL RNLAFB , NL) observed 1325 UTC 15 February 2019
Temperature: 15.0°C (59°F)
Dewpoint: 2.0°C (36°F) [RH = 41%]
Pressure (altimeter): 30.41 inches Hg (1030.0 mb)
Winds: from the SE (140 degrees) at 6 MPH (5 knots; 2.6 m/s)
Visibility: 6 or more miles (10+ km)
Ceiling: at least 12,000 feet AGL
Clouds: sky clear below 12,000 feet AGL
Weather: no significant weather observed at this time

METAR text: EHVK 151255Z AUTO 14006KT 100V180 9999 NCD 14/01 Q1030 BLU 15005KT CAVOK
Conditions at: EHVK (VOLKEL RNLAFB , NL) observed 1255 UTC 15 February 2019
Temperature: 14.0°C (57°F)
Dewpoint: 1.0°C (34°F) [RH = 41%]
Pressure (altimeter): 30.41 inches Hg (1030.0 mb)
Winds: from the SE (140 degrees) at 7 MPH (6 knots; 3.1 m/s)
Visibility: 6 or more miles (10+ km)
Ceiling: at least 12,000 feet AGL
Clouds: sky clear below 12,000 feet AGL
Weather: no significant weather observed at this time

METAR text: EHVK 151229Z AUTO 15005KT 110V170 9999 NCD 14/02 Q1030 BLU 15005KT CAVOK
Conditions at: EHVK (VOLKEL RNLAFB , NL) observed 1229 UTC 15 February 2019
Temperature: 14.0°C (57°F)
Dewpoint: 2.0°C (36°F) [RH = 44%]
Pressure (altimeter): 30.41 inches Hg (1030.0 mb)
Winds: from the SSE (150 degrees) at 6 MPH (5 knots; 2.6 m/s)
Visibility: 6 or more miles (10+ km)
Ceiling: at least 12,000 feet AGL
Clouds: sky clear below 12,000 feet AGL
Weather: no significant weather observed at this time

METAR text: EHVK 151225Z AUTO 14006KT 110V170 9999 NCD 13/02 Q1030 BLU VRB02KT CAVOK BECMG 13005KT
Conditions at: EHVK (VOLKEL RNLAFB , NL) observed 1225 UTC 15 February 2019
Temperature: 13.0°C (55°F)
Dewpoint: 2.0°C (36°F) [RH = 47%]
Pressure (altimeter): 30.41 inches Hg (1030.0 mb)
Winds: from the SE (140 degrees) at 7 MPH (6 knots; 3.1 m/s)
Visibility: 6 or more miles (10+ km)
Ceiling: at least 12,000 feet AGL
Clouds: sky clear below 12,000 feet AGL
Weather: no significant weather observed at this time

METAR text: EHVK 151155Z AUTO 14006KT 100V170 9999 NCD 12/02 Q1031 BLU VRB02KT CAVOK BECMG 13005KT
Conditions at: EHVK (VOLKEL RNLAFB , NL) observed 1155 UTC 15 February 2019
Temperature: 12.0°C (54°F)
Dewpoint: 2.0°C (36°F) [RH = 50%]
Pressure (altimeter): 30.44 inches Hg (1031.0 mb)
Winds: from the SE (140 degrees) at 7 MPH (6 knots; 3.1 m/s)
Visibility: 6 or more miles (10+ km)
Ceiling: at least 12,000 feet AGL
Clouds: sky clear below 12,000 feet AGL
Weather: no significant weather observed at this time

METAR text: EHVK 151125Z AUTO 12004KT 120V180 9999 NCD 11/02 Q1031 BLU VRB02KT CAVOK BECMG 13005KT
Conditions at: EHVK (VOLKEL RNLAFB , NL) observed 1125 UTC 15 February 2019
Temperature: 11.0°C (52°F)
Dewpoint: 2.0°C (36°F) [RH = 54%]
Pressure (altimeter): 30.44 inches Hg (1031.0 mb)
Winds: from the ESE (120 degrees) at 5 MPH (4 knots; 2.1 m/s)
Visibility: 6 or more miles (10+ km)
Ceiling: at least 12,000 feet AGL
Clouds: sky clear below 12,000 feet AGL
Weather: no significant weather observed at this time

METAR text: EHVK 151055Z AUTO 13005KT 100V170 9999 NCD 10/01 Q1031 BLU VRB02KT CAVOK BECMG 13005KT
Conditions at: EHVK (VOLKEL RNLAFB , NL) observed 1055 UTC 15 February 2019
Temperature: 10.0°C (50°F)
Dewpoint: 1.0°C (34°F) [RH = 53%]
Pressure (altimeter): 30.44 inches Hg (1031.0 mb)
Winds: from the SE (130 degrees) at 6 MPH (5 knots; 2.6 m/s)
Visibility: 6 or more miles (10+ km)
Ceiling: at least 12,000 feet AGL
Clouds: sky clear below 12,000 feet AGL
Weather: no significant weather observed at this time

METAR text: EHVK 151025Z AUTO 13005KT 110V170 9999 NCD 09/00 Q1031 BLU VRB02KT CAVOK BECMG 13005KT
Conditions at: EHVK (VOLKEL RNLAFB , NL) observed 1025 UTC 15 February 2019
Temperature: 9.0°C (48°F)
Dewpoint: 0.0°C (32°F) [RH = 53%]
Pressure (altimeter): 30.44 inches Hg (1031.0 mb)
Winds: from the SE (130 degrees) at 6 MPH (5 knots; 2.6 m/s)
Visibility: 6 or more miles (10+ km)
Ceiling: at least 12,000 feet AGL
Clouds: sky clear below 12,000 feet AGL
Weather: no significant weather observed at this time

METAR text: EHVK 150955Z AUTO 13005KT 9999 NCD 08/00 Q1031 BLU VRB02KT CAVOK BECMG 13005KT
Conditions at: EHVK (VOLKEL RNLAFB , NL) observed 0955 UTC 15 February 2019
Temperature: 8.0°C (46°F)
Dewpoint: 0.0°C (32°F) [RH = 57%]
Pressure (altimeter): 30.44 inches Hg (1031.0 mb)
Winds: from the SE (130 degrees) at 6 MPH (5 knots; 2.6 m/s)
Visibility: 6 or more miles (10+ km)
Ceiling: at least 12,000 feet AGL
Clouds: sky clear below 12,000 feet AGL
Weather: no significant weather observed at this time

METAR text: EHVK 150925Z AUTO 13003KT 9999 NCD 07/00 Q1031 BLU VRB02KT CAVOK BECMG 13005KT
Conditions at: EHVK (VOLKEL RNLAFB , NL) observed 0925 UTC 15 February 2019
Temperature: 7.0°C (45°F)
Dewpoint: 0.0°C (32°F) [RH = 61%]
Pressure (altimeter): 30.44 inches Hg (1031.0 mb)
Winds: from the SE (130 degrees) at 3 MPH (3 knots; 1.5 m/s)
Visibility: 6 or more miles (10+ km)
Ceiling: at least 12,000 feet AGL
Clouds: sky clear below 12,000 feet AGL
Weather: no significant weather observed at this time

METAR text: EHVK 150855Z AUTO 12004KT 100V160 9999 NCD 05/M00 Q1032 BLU VRB02KT CAVOK BECMG 13005KT
Conditions at: EHVK (VOLKEL RNLAFB , NL) observed 0855 UTC 15 February 2019
Temperature: 5.0°C (41°F)
Dewpoint: 0.0°C (32°F) [RH = 70%]
Pressure (altimeter): 30.47 inches Hg (1032.0 mb)
Winds: from the ESE (120 degrees) at 5 MPH (4 knots; 2.1 m/s)
Visibility: 6 or more miles (10+ km)
Ceiling: at least 12,000 feet AGL
Clouds: sky clear below 12,000 feet AGL
Weather: no significant weather observed at this time

METAR text: EHVK 150825Z AUTO 11002KT 9999 NCD 03/00 Q1032 BLU VRB02KT CAVOK BECMG 13005KT
Conditions at: EHVK (VOLKEL RNLAFB , NL) observed 0825 UTC 15 February 2019
Temperature: 3.0°C (37°F)
Dewpoint: 0.0°C (32°F) [RH = 81%]
Pressure (altimeter): 30.47 inches Hg (1032.0 mb)
Winds: from the ESE (110 degrees) at 2 MPH (2 knots; 1.0 m/s)
Visibility: 6 or more miles (10+ km)
Ceiling: at least 12,000 feet AGL
Clouds: sky clear below 12,000 feet AGL
Weather: no significant weather observed at this time

METAR text: EHVK 150755Z AUTO 10003KT 9999 NCD 01/M02 Q1032 BLU VRB02KT CAVOK BECMG 13005KT
Conditions at: EHVK (VOLKEL RNLAFB , NL) observed 0755 UTC 15 February 2019
Temperature: 1.0°C (34°F)
Dewpoint: -2.0°C (28°F) [RH = 80%]
Pressure (altimeter): 30.47 inches Hg (1032.0 mb)
Winds: from the E (100 degrees) at 3 MPH (3 knots; 1.5 m/s)
Visibility: 6 or more miles (10+ km)
Ceiling: at least 12,000 feet AGL
Clouds: sky clear below 12,000 feet AGL
Weather: no significant weather observed at this time

METAR text: EHVK 150725Z AUTO 12002KT 9999 NCD 01/M02 Q1032 BLU VRB02KT CAVOK BECMG 13005KT
Conditions at: EHVK (VOLKEL RNLAFB , NL) observed 0725 UTC 15 February 2019
Temperature: 1.0°C (34°F)
Dewpoint: -2.0°C (28°F) [RH = 80%]
Pressure (altimeter): 30.47 inches Hg (1032.0 mb)
Winds: from the ESE (120 degrees) at 2 MPH (2 knots; 1.0 m/s)
Visibility: 6 or more miles (10+ km)
Ceiling: at least 12,000 feet AGL
Clouds: sky clear below 12,000 feet AGL
Weather: no significant weather observed at this time

METAR text: EHVK 150655Z AUTO 10002KT 9999 NCD M00/M02 Q1032 BLU VRB02KT CAVOK BECMG 13005KT
Conditions at: EHVK (VOLKEL RNLAFB , NL) observed 0655 UTC 15 February 2019
Temperature: 0.0°C (32°F)
Dewpoint: -2.0°C (28°F) [RH = 86%]
Pressure (altimeter): 30.47 inches Hg (1032.0 mb)
Winds: from the E (100 degrees) at 2 MPH (2 knots; 1.0 m/s)
Visibility: 6 or more miles (10+ km)
Ceiling: at least 12,000 feet AGL
Clouds: sky clear below 12,000 feet AGL
Weather: no significant weather observed at this time

METAR text: EHVK 150625Z AUTO 11002KT 9999 NCD M00/M02 Q1032 BLU
Conditions at: EHVK (VOLKEL RNLAFB , NL) observed 0625 UTC 15 February 2019
Temperature: 0.0°C (32°F)
Dewpoint: -2.0°C (28°F) [RH = 86%]
Pressure (altimeter): 30.47 inches Hg (1032.0 mb)
Winds: from the ESE (110 degrees) at 2 MPH (2 knots; 1.0 m/s)
Visibility: 6 or more miles (10+ km)
Ceiling: at least 12,000 feet AGL
Clouds: sky clear below 12,000 feet AGL
Weather: no significant weather observed at this time

METAR text: EHVK 150555Z AUTO 10002KT 9999 NCD 01/M02 Q1032 BLU
Conditions at: EHVK (VOLKEL RNLAFB , NL) observed 0555 UTC 15 February 2019
Temperature: 1.0°C (34°F)
Dewpoint: -2.0°C (28°F) [RH = 80%]
Pressure (altimeter): 30.47 inches Hg (1032.0 mb)
Winds: from the E (100 degrees) at 2 MPH (2 knots; 1.0 m/s)
Visibility: 6 or more miles (10+ km)
Ceiling: at least 12,000 feet AGL
Clouds: sky clear below 12,000 feet AGL
Weather: no significant weather observed at this time

METAR text: EHVK 150525Z AUTO 08002KT 9999 NCD 01/M02 Q1032 BLU
Conditions at: EHVK (VOLKEL RNLAFB , NL) observed 0525 UTC 15 February 2019
Temperature: 1.0°C (34°F)
Dewpoint: -2.0°C (28°F) [RH = 80%]
Pressure (altimeter): 30.47 inches Hg (1032.0 mb)
Winds: from the E (80 degrees) at 2 MPH (2 knots; 1.0 m/s)
Visibility: 6 or more miles (10+ km)
Ceiling: at least 12,000 feet AGL
Clouds: sky clear below 12,000 feet AGL
Weather: no significant weather observed at this time

METAR text: EHVK 150455Z AUTO 08003KT 9999 NCD 00/M02 Q1032 BLU
Conditions at: EHVK (VOLKEL RNLAFB , NL) observed 0455 UTC 15 February 2019
Temperature: 0.0°C (32°F)
Dewpoint: -2.0°C (28°F) [RH = 86%]
Pressure (altimeter): 30.47 inches Hg (1032.0 mb)
Winds: from the E (80 degrees) at 3 MPH (3 knots; 1.5 m/s)
Visibility: 6 or more miles (10+ km)
Ceiling: at least 12,000 feet AGL
Clouds: sky clear below 12,000 feet AGL
Weather: no significant weather observed at this time

METAR text: EHVK 150425Z AUTO 09002KT 9999 NCD 01/M01 Q1032 BLU
Conditions at: EHVK (VOLKEL RNLAFB , NL) observed 0425 UTC 15 February 2019
Temperature: 1.0°C (34°F)
Dewpoint: -1.0°C (30°F) [RH = 86%]
Pressure (altimeter): 30.47 inches Hg (1032.0 mb)
Winds: from the E (90 degrees) at 2 MPH (2 knots; 1.0 m/s)
Visibility: 6 or more miles (10+ km)
Ceiling: at least 12,000 feet AGL
Clouds: sky clear below 12,000 feet AGL
Weather: no significant weather observed at this time

METAR text: EHVK 150355Z AUTO 07003KT 9999 NCD M01/M03 Q1032 BLU
Conditions at: EHVK (VOLKEL RNLAFB , NL) observed 0355 UTC 15 February 2019
Temperature: -1.0°C (30°F)
Dewpoint: -3.0°C (27°F) [RH = 86%]
Pressure (altimeter): 30.47 inches Hg (1032.0 mb)
Winds: from the ENE (70 degrees) at 3 MPH (3 knots; 1.5 m/s)
Visibility: 6 or more miles (10+ km)
Ceiling: at least 12,000 feet AGL
Clouds: sky clear below 12,000 feet AGL
Weather: no significant weather observed at this time

METAR text: EHVK 150325Z AUTO 07002KT 9999 NCD 00/M02 Q1032 BLU
Conditions at: EHVK (VOLKEL RNLAFB , NL) observed 0325 UTC 15 February 2019
Temperature: 0.0°C (32°F)
Dewpoint: -2.0°C (28°F) [RH = 86%]
Pressure (altimeter): 30.47 inches Hg (1032.0 mb)
Winds: from the ENE (70 degrees) at 2 MPH (2 knots; 1.0 m/s)
Visibility: 6 or more miles (10+ km)
Ceiling: at least 12,000 feet AGL
Clouds: sky clear below 12,000 feet AGL
Weather: no significant weather observed at this time

METAR text: EHVK 150255Z AUTO 09003KT 9999 NCD 01/M02 Q1032 BLU
Conditions at: EHVK (VOLKEL RNLAFB , NL) observed 0255 UTC 15 February 2019
Temperature: 1.0°C (34°F)
Dewpoint: -2.0°C (28°F) [RH = 80%]
Pressure (altimeter): 30.47 inches Hg (1032.0 mb)
Winds: from the E (90 degrees) at 3 MPH (3 knots; 1.5 m/s)
Visibility: 6 or more miles (10+ km)
Ceiling: at least 12,000 feet AGL
Clouds: sky clear below 12,000 feet AGL
Weather: no significant weather observed at this time

METAR text: EHVK 150225Z AUTO 08003KT 9999 NCD 01/M02 Q1032 BLU
Conditions at: EHVK (VOLKEL RNLAFB , NL) observed 0225 UTC 15 February 2019
Temperature: 1.0°C (34°F)
Dewpoint: -2.0°C (28°F) [RH = 80%]
Pressure (altimeter): 30.47 inches Hg (1032.0 mb)
Winds: from the E (80 degrees) at 3 MPH (3 knots; 1.5 m/s)
Visibility: 6 or more miles (10+ km)
Ceiling: at least 12,000 feet AGL
Clouds: sky clear below 12,000 feet AGL
Weather: no significant weather observed at this time

METAR text: EHVK 150155Z AUTO 07003KT 9999 NCD 00/M02 Q1033 BLU
Conditions at: EHVK (VOLKEL RNLAFB , NL) observed 0155 UTC 15 February 2019
Temperature: 0.0°C (32°F)
Dewpoint: -2.0°C (28°F) [RH = 86%]
Pressure (altimeter): 30.50 inches Hg (1033.0 mb)
Winds: from the ENE (70 degrees) at 3 MPH (3 knots; 1.5 m/s)
Visibility: 6 or more miles (10+ km)
Ceiling: at least 12,000 feet AGL
Clouds: sky clear below 12,000 feet AGL
Weather: no significant weather observed at this time

METAR text: EHVK 150125Z AUTO 06001KT 9999 NCD M00/M02 Q1033 BLU
Conditions at: EHVK (VOLKEL RNLAFB , NL) observed 0125 UTC 15 February 2019
Temperature: 0.0°C (32°F)
Dewpoint: -2.0°C (28°F) [RH = 86%]
Pressure (altimeter): 30.50 inches Hg (1033.0 mb)
Winds: from the ENE (60 degrees) at 1 MPH (1 knots; 0.5 m/s)
Visibility: 6 or more miles (10+ km)
Ceiling: at least 12,000 feet AGL
Clouds: sky clear below 12,000 feet AGL
Weather: no significant weather observed at this time

METAR text: EHVK 150055Z AUTO 09001KT 9999 NCD 01/M01 Q1033 BLU
Conditions at: EHVK (VOLKEL RNLAFB , NL) observed 0055 UTC 15 February 2019
Temperature: 1.0°C (34°F)
Dewpoint: -1.0°C (30°F) [RH = 86%]
Pressure (altimeter): 30.50 inches Hg (1033.0 mb)
Winds: from the E (90 degrees) at 1 MPH (1 knots; 0.5 m/s)
Visibility: 6 or more miles (10+ km)
Ceiling: at least 12,000 feet AGL
Clouds: sky clear below 12,000 feet AGL
Weather: no significant weather observed at this time

METAR text: EHVK 150025Z AUTO 08003KT 9999 NCD 00/M01 Q1033 BLU
Conditions at: EHVK (VOLKEL RNLAFB , NL) observed 0025 UTC 15 February 2019
Temperature: 0.0°C (32°F)
Dewpoint: -1.0°C (30°F) [RH = 93%]
Pressure (altimeter): 30.50 inches Hg (1033.0 mb)
Winds: from the E (80 degrees) at 3 MPH (3 knots; 1.5 m/s)
Visibility: 6 or more miles (10+ km)
Ceiling: at least 12,000 feet AGL
Clouds: sky clear below 12,000 feet AGL
Weather: no significant weather observed at this time

METAR text: EHVK 142355Z AUTO 05001KT 9999 NCD 00/M01 Q1033 BLU
Conditions at: EHVK (VOLKEL RNLAFB , NL) observed 2355 UTC 14 February 2019
Temperature: 0.0°C (32°F)
Dewpoint: -1.0°C (30°F) [RH = 93%]
Pressure (altimeter): 30.50 inches Hg (1033.0 mb)
Winds: from the NE (50 degrees) at 1 MPH (1 knots; 0.5 m/s)
Visibility: 6 or more miles (10+ km)
Ceiling: at least 12,000 feet AGL
Clouds: sky clear below 12,000 feet AGL
Weather: no significant weather observed at this time

METAR text: EHVK 142325Z AUTO 08002KT 9999 NCD 01/M01 Q1033 BLU
Conditions at: EHVK (VOLKEL RNLAFB , NL) observed 2325 UTC 14 February 2019
Temperature: 1.0°C (34°F)
Dewpoint: -1.0°C (30°F) [RH = 86%]
Pressure (altimeter): 30.50 inches Hg (1033.0 mb)
Winds: from the E (80 degrees) at 2 MPH (2 knots; 1.0 m/s)
Visibility: 6 or more miles (10+ km)
Ceiling: at least 12,000 feet AGL
Clouds: sky clear below 12,000 feet AGL
Weather: no significant weather observed at this time

METAR text: EHVK 142255Z AUTO 07003KT 9999 BKN340 01/M01 Q1033 BLU
Conditions at: EHVK (VOLKEL RNLAFB , NL) observed 2255 UTC 14 February 2019
Temperature: 1.0°C (34°F)
Dewpoint: -1.0°C (30°F) [RH = 86%]
Pressure (altimeter): 30.50 inches Hg (1033.0 mb)
Winds: from the ENE (70 degrees) at 3 MPH (3 knots; 1.5 m/s)
Visibility: 6 or more miles (10+ km)
Ceiling: 34000 feet AGL
Clouds: broken clouds at 34000 feet AGL
Weather: no significant weather observed at this time

METAR text: EHVK 142225Z AUTO 09002KT 9999 NCD 03/00 Q1033 BLU
Conditions at: EHVK (VOLKEL RNLAFB , NL) observed 2225 UTC 14 February 2019
Temperature: 3.0°C (37°F)
Dewpoint: 0.0°C (32°F) [RH = 81%]
Pressure (altimeter): 30.50 inches Hg (1033.0 mb)
Winds: from the E (90 degrees) at 2 MPH (2 knots; 1.0 m/s)
Visibility: 6 or more miles (10+ km)
Ceiling: at least 12,000 feet AGL
Clouds: sky clear below 12,000 feet AGL
Weather: no significant weather observed at this time

METAR text: EHVK 142155Z AUTO 10003KT 9999 NCD 02/M00 Q1033 BLU
Conditions at: EHVK (VOLKEL RNLAFB , NL) observed 2155 UTC 14 February 2019
Temperature: 2.0°C (36°F)
Dewpoint: 0.0°C (32°F) [RH = 87%]
Pressure (altimeter): 30.50 inches Hg (1033.0 mb)
Winds: from the E (100 degrees) at 3 MPH (3 knots; 1.5 m/s)
Visibility: 6 or more miles (10+ km)
Ceiling: at least 12,000 feet AGL
Clouds: sky clear below 12,000 feet AGL
Weather: no significant weather observed at this time

METAR text: EHVK 142125Z AUTO 08004KT 9999 NCD 02/M00 Q1033 BLU
Conditions at: EHVK (VOLKEL RNLAFB , NL) observed 2125 UTC 14 February 2019
Temperature: 2.0°C (36°F)
Dewpoint: 0.0°C (32°F) [RH = 87%]
Pressure (altimeter): 30.50 inches Hg (1033.0 mb)
Winds: from the E (80 degrees) at 5 MPH (4 knots; 2.1 m/s)
Visibility: 6 or more miles (10+ km)
Ceiling: at least 12,000 feet AGL
Clouds: sky clear below 12,000 feet AGL
Weather: no significant weather observed at this time

METAR text: EHVK 142055Z AUTO 06002KT 9999 NCD 03/00 Q1033 BLU
Conditions at: EHVK (VOLKEL RNLAFB , NL) observed 2055 UTC 14 February 2019
Temperature: 3.0°C (37°F)
Dewpoint: 0.0°C (32°F) [RH = 81%]
Pressure (altimeter): 30.50 inches Hg (1033.0 mb)
Winds: from the ENE (60 degrees) at 2 MPH (2 knots; 1.0 m/s)
Visibility: 6 or more miles (10+ km)
Ceiling: at least 12,000 feet AGL
Clouds: sky clear below 12,000 feet AGL
Weather: no significant weather observed at this time

METAR text: EHVK 142025Z AUTO 09004KT 9999 NCD 03/00 Q1033 BLU
Conditions at: EHVK (VOLKEL RNLAFB , NL) observed 2025 UTC 14 February 2019
Temperature: 3.0°C (37°F)
Dewpoint: 0.0°C (32°F) [RH = 81%]
Pressure (altimeter): 30.50 inches Hg (1033.0 mb)
Winds: from the E (90 degrees) at 5 MPH (4 knots; 2.1 m/s)
Visibility: 6 or more miles (10+ km)
Ceiling: at least 12,000 feet AGL
Clouds: sky clear below 12,000 feet AGL
Weather: no significant weather observed at this time

METAR text: EHVK 141955Z AUTO 09003KT 9999 NCD 04/00 Q1033 BLU
Conditions at: EHVK (VOLKEL RNLAFB , NL) observed 1955 UTC 14 February 2019
Temperature: 4.0°C (39°F)
Dewpoint: 0.0°C (32°F) [RH = 75%]
Pressure (altimeter): 30.50 inches Hg (1033.0 mb)
Winds: from the E (90 degrees) at 3 MPH (3 knots; 1.5 m/s)
Visibility: 6 or more miles (10+ km)
Ceiling: at least 12,000 feet AGL
Clouds: sky clear below 12,000 feet AGL
Weather: no significant weather observed at this time

METAR text: EHVK 141925Z AUTO 11003KT 080V150 9999 NCD 05/01 Q1033 BLU
Conditions at: EHVK (VOLKEL RNLAFB , NL) observed 1925 UTC 14 February 2019
Temperature: 5.0°C (41°F)
Dewpoint: 1.0°C (34°F) [RH = 75%]
Pressure (altimeter): 30.50 inches Hg (1033.0 mb)
Winds: from the ESE (110 degrees) at 3 MPH (3 knots; 1.5 m/s)
Visibility: 6 or more miles (10+ km)
Ceiling: at least 12,000 feet AGL
Clouds: sky clear below 12,000 feet AGL
Weather: no significant weather observed at this time

METAR text: EHVK 141855Z AUTO 09004KT 9999 NCD 05/01 Q1033 BLU
Conditions at: EHVK (VOLKEL RNLAFB , NL) observed 1855 UTC 14 February 2019
Temperature: 5.0°C (41°F)
Dewpoint: 1.0°C (34°F) [RH = 75%]
Pressure (altimeter): 30.50 inches Hg (1033.0 mb)
Winds: from the E (90 degrees) at 5 MPH (4 knots; 2.1 m/s)
Visibility: 6 or more miles (10+ km)
Ceiling: at least 12,000 feet AGL
Clouds: sky clear below 12,000 feet AGL
Weather: no significant weather observed at this time

METAR text: EHVK 141825Z AUTO 11004KT 080V140 9999 NCD 05/00 Q1033 BLU
Conditions at: EHVK (VOLKEL RNLAFB , NL) observed 1825 UTC 14 February 2019
Temperature: 5.0°C (41°F)
Dewpoint: 0.0°C (32°F) [RH = 70%]
Pressure (altimeter): 30.50 inches Hg (1033.0 mb)
Winds: from the ESE (110 degrees) at 5 MPH (4 knots; 2.1 m/s)
Visibility: 6 or more miles (10+ km)
Ceiling: at least 12,000 feet AGL
Clouds: sky clear below 12,000 feet AGL
Weather: no significant weather observed at this time

METAR text: EHVK 141755Z AUTO 11004KT 9999 FEW360 06/01 Q1033 BLU
Conditions at: EHVK (VOLKEL RNLAFB , NL) observed 1755 UTC 14 February 2019
Temperature: 6.0°C (43°F)
Dewpoint: 1.0°C (34°F) [RH = 70%]
Pressure (altimeter): 30.50 inches Hg (1033.0 mb)
Winds: from the ESE (110 degrees) at 5 MPH (4 knots; 2.1 m/s)
Visibility: 6 or more miles (10+ km)
Ceiling: at least 12,000 feet AGL
Clouds: few clouds at 36000 feet AGL
Weather: no significant weather observed at this time

METAR text: EHVK 141725Z AUTO 12003KT 9999 NCD 07/01 Q1033 BLU
Conditions at: EHVK (VOLKEL RNLAFB , NL) observed 1725 UTC 14 February 2019
Temperature: 7.0°C (45°F)
Dewpoint: 1.0°C (34°F) [RH = 66%]
Pressure (altimeter): 30.50 inches Hg (1033.0 mb)
Winds: from the ESE (120 degrees) at 3 MPH (3 knots; 1.5 m/s)
Visibility: 6 or more miles (10+ km)
Ceiling: at least 12,000 feet AGL
Clouds: sky clear below 12,000 feet AGL
Weather: no significant weather observed at this time

METAR text: EHVK 141655Z AUTO 11004KT 9999 SCT350 08/01 Q1033 BLU
Conditions at: EHVK (VOLKEL RNLAFB , NL) observed 1655 UTC 14 February 2019
Temperature: 8.0°C (46°F)
Dewpoint: 1.0°C (34°F) [RH = 61%]
Pressure (altimeter): 30.50 inches Hg (1033.0 mb)
Winds: from the ESE (110 degrees) at 5 MPH (4 knots; 2.1 m/s)
Visibility: 6 or more miles (10+ km)
Ceiling: at least 12,000 feet AGL
Clouds: scattered clouds at 35000 feet AGL
Weather: no significant weather observed at this time

METAR text: EHVK 141625Z AUTO 10004KT 9999 NCD 10/01 Q1033 BLU
Conditions at: EHVK (VOLKEL RNLAFB , NL) observed 1625 UTC 14 February 2019
Temperature: 10.0°C (50°F)
Dewpoint: 1.0°C (34°F) [RH = 53%]
Pressure (altimeter): 30.50 inches Hg (1033.0 mb)
Winds: from the E (100 degrees) at 5 MPH (4 knots; 2.1 m/s)
Visibility: 6 or more miles (10+ km)
Ceiling: at least 12,000 feet AGL
Clouds: sky clear below 12,000 feet AGL
Weather: no significant weather observed at this time

METAR text: EHVK 141555Z AUTO 11002KT 9999 FEW320 12/00 Q1033 BLU
Conditions at: EHVK (VOLKEL RNLAFB , NL) observed 1555 UTC 14 February 2019
Temperature: 12.0°C (54°F)
Dewpoint: 0.0°C (32°F) [RH = 44%]
Pressure (altimeter): 30.50 inches Hg (1033.0 mb)
Winds: from the ESE (110 degrees) at 2 MPH (2 knots; 1.0 m/s)
Visibility: 6 or more miles (10+ km)
Ceiling: at least 12,000 feet AGL
Clouds: few clouds at 32000 feet AGL
Weather: no significant weather observed at this time

METAR text: EHVK 141525Z AUTO 12004KT 9999 OVC320 12/M01 Q1034 BLU
Conditions at: EHVK (VOLKEL RNLAFB , NL) observed 1525 UTC 14 February 2019
Temperature: 12.0°C (54°F)
Dewpoint: -1.0°C (30°F) [RH = 40%]
Pressure (altimeter): 30.53 inches Hg (1034.0 mb)
Winds: from the ESE (120 degrees) at 5 MPH (4 knots; 2.1 m/s)
Visibility: 6 or more miles (10+ km)
Ceiling: 32000 feet AGL
Clouds: overcast cloud deck at 32000 feet AGL
Weather: no significant weather observed at this time

METAR text: EHVK 141455Z AUTO 16002KT 9999 BKN330 13/M01 Q1034 BLU
Conditions at: EHVK (VOLKEL RNLAFB , NL) observed 1455 UTC 14 February 2019
Temperature: 13.0°C (55°F)
Dewpoint: -1.0°C (30°F) [RH = 38%]
Pressure (altimeter): 30.53 inches Hg (1034.0 mb)
Winds: from the SSE (160 degrees) at 2 MPH (2 knots; 1.0 m/s)
Visibility: 6 or more miles (10+ km)
Ceiling: 33000 feet AGL
Clouds: broken clouds at 33000 feet AGL
Weather: no significant weather observed at this time

METAR text: EHVK 141425Z AUTO 21003KT 150V240 9999 OVC320 13/M00 Q1034 BLU 18005KT CAVOK
Conditions at: EHVK (VOLKEL RNLAFB , NL) observed 1425 UTC 14 February 2019
Temperature: 13.0°C (55°F)
Dewpoint: 0.0°C (32°F) [RH = 41%]
Pressure (altimeter): 30.53 inches Hg (1034.0 mb)
Winds: from the SSW (210 degrees) at 3 MPH (3 knots; 1.5 m/s)
Visibility: 6 or more miles (10+ km)
Ceiling: 32000 feet AGL
Clouds: overcast cloud deck at 32000 feet AGL
Weather: no significant weather observed at this time

METAR text: EHVK 141355Z AUTO 16004KT 140V230 9999 BKN340 13/M01 Q1034 BLU 18005KT CAVOK
Conditions at: EHVK (VOLKEL RNLAFB , NL) observed 1355 UTC 14 February 2019
Temperature: 13.0°C (55°F)
Dewpoint: -1.0°C (30°F) [RH = 38%]
Pressure (altimeter): 30.53 inches Hg (1034.0 mb)
Winds: from the SSE (160 degrees) at 5 MPH (4 knots; 2.1 m/s)
Visibility: 6 or more miles (10+ km)
Ceiling: 34000 feet AGL
Clouds: broken clouds at 34000 feet AGL
Weather: no significant weather observed at this time

METAR text: EHVK 141325Z AUTO 17003KT 110V230 9999 SCT200 OVC330 12/01 Q1035 BLU 18005KT CAVOK
Conditions at: EHVK (VOLKEL RNLAFB , NL) observed 1325 UTC 14 February 2019
Temperature: 12.0°C (54°F)
Dewpoint: 1.0°C (34°F) [RH = 47%]
Pressure (altimeter): 30.56 inches Hg (1035.0 mb)
Winds: from the S (170 degrees) at 3 MPH (3 knots; 1.5 m/s)
Visibility: 6 or more miles (10+ km)
Ceiling: 33000 feet AGL
Clouds: scattered clouds at 20000 feet AGL
overcast cloud deck at 33000 feet AGL
Weather: no significant weather observed at this time

METAR text: EHVK 141255Z AUTO 22003KT 150V260 9999 OVC180 12/01 Q1035 BLU 18005KT CAVOK
Conditions at: EHVK (VOLKEL RNLAFB , NL) observed 1255 UTC 14 February 2019
Temperature: 12.0°C (54°F)
Dewpoint: 1.0°C (34°F) [RH = 47%]
Pressure (altimeter): 30.56 inches Hg (1035.0 mb)
Winds: from the SW (220 degrees) at 3 MPH (3 knots; 1.5 m/s)
Visibility: 6 or more miles (10+ km)
Ceiling: 18000 feet AGL
Clouds: overcast cloud deck at 18000 feet AGL
Weather: no significant weather observed at this time

METAR text: EHVK 141225Z AUTO 20004KT 150V230 9999 BKN170/// OVC350/// 11/01 Q1035 BLU 18005KT CAVOK
Conditions at: EHVK (VOLKEL RNLAFB , NL) observed 1225 UTC 14 February 2019
Temperature: 11.0°C (52°F)
Dewpoint: 1.0°C (34°F) [RH = 50%]
Pressure (altimeter): 30.56 inches Hg (1035.0 mb)
Winds: from the SSW (200 degrees) at 5 MPH (4 knots; 2.1 m/s)
Visibility: 6 or more miles (10+ km)
Ceiling: 17000 feet AGL
Clouds: broken clouds at 17000 feet AGL
overcast cloud deck at 35000 feet AGL
Weather: no significant weather observed at this time

METAR text: EHVK 141155Z AUTO 19004KT 140V220 9999 OVC190 10/01 Q1035 BLU 18005KT CAVOK
Conditions at: EHVK (VOLKEL RNLAFB , NL) observed 1155 UTC 14 February 2019
Temperature: 10.0°C (50°F)
Dewpoint: 1.0°C (34°F) [RH = 53%]
Pressure (altimeter): 30.56 inches Hg (1035.0 mb)
Winds: from the S (190 degrees) at 5 MPH (4 knots; 2.1 m/s)
Visibility: 6 or more miles (10+ km)
Ceiling: 19000 feet AGL
Clouds: overcast cloud deck at 19000 feet AGL
Weather: no significant weather observed at this time

METAR text: EHVK 141141Z AUTO 21005KT 140V230 9999 BKN210/// OVC340/// 10/01 Q1035 BLU 18005KT CAVOK
Conditions at: EHVK (VOLKEL RNLAFB , NL) observed 1141 UTC 14 February 2019
Temperature: 10.0°C (50°F)
Dewpoint: 1.0°C (34°F) [RH = 53%]
Pressure (altimeter): 30.56 inches Hg (1035.0 mb)
Winds: from the SSW (210 degrees) at 6 MPH (5 knots; 2.6 m/s)
Visibility: 6 or more miles (10+ km)
Ceiling: 21000 feet AGL
Clouds: broken clouds at 21000 feet AGL
overcast cloud deck at 34000 feet AGL
Weather: no significant weather observed at this time

Forecast for: EHVK (VOLKEL RNLAFB , NL)
Text: TAF EHVK 152130Z 1522/1610 16004KT CAVOK
Forecast period: 2200 UTC 15 February 2019 to 1000 UTC 16 February 2019
Forecast type: FROM: standard forecast or significant change
Winds: from the SSE (160 degrees) at 5 MPH (4 knots; 2.1 m/s)
Visibility: 6 or more miles 10+ km)
Ceiling: unknown
Clouds: missing
Weather: NSW  (no significant weather)
Text: PROB30 1602/1606 4500 BR MIFG
Forecast period: 0200 to 0600 UTC 16 February 2019
Forecast type: PROBABLE: 30 percent likelihood of the following during this time
Visibility: 2.80 miles (4.51 km)
Ceiling: unknown
Clouds: missing
Weather: BR MIFG  (mist, shallow fog)